createdAt,value
2023-04-15T00:01:45.741Z,101076.88
2023-04-15T00:04:13.686Z,101070.91
2023-04-15T00:06:41.836Z,101082.69
2023-04-15T00:09:09.720Z,101076.00
2023-04-15T00:11:37.569Z,101076.69
2023-04-15T00:14:06.291Z,101080.63
2023-04-15T00:16:34.117Z,101077.38
2023-04-15T00:19:03.525Z,101081.84
2023-04-15T00:21:32.511Z,101088.81
2023-04-15T00:24:00.433Z,101083.34
2023-04-15T00:26:28.485Z,101083.69
2023-04-15T00:28:56.774Z,101080.44
2023-04-15T00:31:24.614Z,101082.50
2023-04-15T00:33:53.211Z,101080.78
2023-04-15T00:36:24.536Z,101085.22
2023-04-15T00:38:52.359Z,101087.59
2023-04-15T00:41:23.060Z,101090.47
2023-04-15T00:43:51.243Z,101092.69
2023-04-15T00:46:21.988Z,101090.81
2023-04-15T00:48:50.157Z,101093.19
2023-04-15T00:51:18.006Z,101100.00
2023-04-15T00:53:47.300Z,101096.47
2023-04-15T00:56:15.409Z,101099.19
2023-04-15T00:58:43.279Z,101098.00
2023-04-15T01:01:11.483Z,101100.00
2023-04-15T01:03:39.328Z,101099.81
2023-04-15T01:06:07.558Z,101095.06
2023-04-15T01:08:35.498Z,101096.75
2023-04-15T01:11:05.392Z,101087.38
2023-04-15T01:13:35.365Z,101100.69
2023-04-15T01:16:03.933Z,101104.59
2023-04-15T01:18:32.801Z,101105.44
2023-04-15T01:21:03.667Z,101111.25
2023-04-15T01:23:32.657Z,101110.41
2023-04-15T01:26:02.002Z,101112.59
2023-04-15T01:28:29.890Z,101113.63
2023-04-15T01:31:09.185Z,101105.09
2023-04-15T01:33:38.641Z,101103.75
2023-04-15T01:36:09.697Z,101104.22
2023-04-15T01:38:38.118Z,101103.50
2023-04-15T01:41:08.206Z,101111.69
2023-04-15T01:43:37.205Z,101114.75
2023-04-15T01:46:05.209Z,101106.84
2023-04-15T01:48:33.902Z,101112.69
2023-04-15T01:51:02.214Z,101104.13
2023-04-15T01:53:30.150Z,101109.09
2023-04-15T01:55:57.934Z,101111.16
2023-04-15T01:58:27.262Z,101106.84
2023-04-15T02:00:56.327Z,101104.97
2023-04-15T02:03:25.764Z,101108.09
2023-04-15T02:05:54.128Z,101107.38
2023-04-15T02:08:22.986Z,101112.81
2023-04-15T02:10:50.957Z,101111.47
2023-04-15T02:13:19.374Z,101112.44
2023-04-15T02:15:52.492Z,101117.28
2023-04-15T02:18:21.528Z,101115.81
2023-04-15T02:20:49.914Z,101114.56
2023-04-15T02:23:17.687Z,101113.97
2023-04-15T02:25:53.784Z,101125.34
2023-04-15T02:28:22.458Z,101120.28
2023-04-15T02:30:53.576Z,101119.94
2023-04-15T02:33:23.353Z,101123.94
2023-04-15T02:35:51.556Z,101132.31
2023-04-15T02:38:19.277Z,101133.84
2023-04-15T02:40:49.785Z,101137.09
2023-04-15T02:43:18.261Z,101141.34
2023-04-15T02:45:47.042Z,101139.47
2023-04-15T02:48:19.432Z,101150.00
2023-04-15T02:50:47.926Z,101152.91
2023-04-15T02:53:17.489Z,101154.88
2023-04-15T02:55:45.327Z,101157.50
2023-04-15T02:58:13.144Z,101157.81
2023-04-15T03:00:40.993Z,101165.16
2023-04-15T03:03:09.081Z,101170.13
2023-04-15T03:05:39.688Z,101166.34
2023-04-15T03:08:07.517Z,101167.22
2023-04-15T03:10:35.300Z,101167.00
2023-04-15T03:13:03.183Z,101163.81
2023-04-15T03:15:33.839Z,101173.69
2023-04-15T03:18:02.372Z,101170.19
2023-04-15T03:20:30.365Z,101169.06
2023-04-15T03:22:59.679Z,101172.47
2023-04-15T03:25:27.655Z,101177.38
2023-04-15T03:27:55.717Z,101172.25
2023-04-15T03:30:23.522Z,101172.47
2023-04-15T03:32:52.006Z,101170.91
2023-04-15T03:35:19.866Z,101183.72
2023-04-15T03:37:49.150Z,101183.47
2023-04-15T03:40:18.372Z,101183.63
2023-04-15T03:42:46.064Z,101186.34
2023-04-15T03:45:13.912Z,101188.72
2023-04-15T03:47:41.714Z,101183.78
2023-04-15T03:50:10.117Z,101192.13
2023-04-15T03:52:38.026Z,101198.66
2023-04-15T03:55:06.661Z,101189.13
2023-04-15T03:57:38.924Z,101197.13
2023-04-15T04:00:09.311Z,101200.50
2023-04-15T04:02:39.793Z,101192.50
2023-04-15T04:05:08.213Z,101196.16
2023-04-15T04:07:36.043Z,101188.72
2023-04-15T04:10:04.973Z,101188.94
2023-04-15T04:12:32.684Z,101196.66
2023-04-15T04:15:01.864Z,101203.66
2023-04-15T04:17:29.720Z,101206.38
2023-04-15T04:19:57.706Z,101211.75
2023-04-15T04:22:25.734Z,101218.25
2023-04-15T04:24:53.672Z,101214.66
2023-04-15T04:27:21.389Z,101215.66
2023-04-15T04:29:49.913Z,101220.09
2023-04-15T04:32:19.096Z,101218.34
2023-04-15T04:34:47.201Z,101218.34
2023-04-15T04:37:15.222Z,101228.56
2023-04-15T04:39:43.054Z,101227.78
2023-04-15T04:42:10.807Z,101221.31
2023-04-15T04:44:39.221Z,101232.19
2023-04-15T04:47:07.662Z,101234.69
2023-04-15T04:49:36.910Z,101235.78
2023-04-15T04:52:04.885Z,101234.78
2023-04-15T04:54:32.640Z,101240.88
2023-04-15T04:57:00.780Z,101236.72
2023-04-15T04:59:28.585Z,101235.50
2023-04-15T05:01:57.119Z,101236.94
2023-04-15T05:04:25.065Z,101233.47
2023-04-15T05:06:54.379Z,101231.19
2023-04-15T05:09:22.397Z,101234.94
2023-04-15T05:11:50.464Z,101239.53
2023-04-15T05:14:18.232Z,101238.38
2023-04-15T05:16:46.055Z,101239.69
2023-04-15T05:19:13.781Z,101242.81
2023-04-15T05:21:41.624Z,101248.72
2023-04-15T05:24:10.695Z,101246.16
2023-04-15T05:26:38.395Z,101249.56
2023-04-15T05:29:06.369Z,101258.19
2023-04-15T05:31:34.392Z,101254.31
2023-04-15T05:34:02.585Z,101259.84
2023-04-15T05:36:31.473Z,101264.41
2023-04-15T05:38:59.589Z,101266.69
2023-04-15T05:41:29.039Z,101272.00
2023-04-15T05:43:57.012Z,101273.53
2023-04-15T05:46:24.892Z,101274.75
2023-04-15T05:48:54.668Z,101277.50
2023-04-15T05:51:23.443Z,101275.97
2023-04-15T05:53:51.285Z,101281.22
2023-04-15T05:56:20.386Z,101275.28
2023-04-15T05:58:50.550Z,101288.78
2023-04-15T06:01:19.419Z,101296.34
2023-04-15T06:03:47.476Z,101293.38
2023-04-15T06:06:15.478Z,101302.66
2023-04-15T06:08:43.287Z,101300.38
2023-04-15T06:11:11.011Z,101312.38
2023-04-15T06:13:38.734Z,101313.09
2023-04-15T06:16:08.639Z,101309.72
2023-04-15T06:18:36.374Z,101312.44
2023-04-15T06:21:04.373Z,101320.91
2023-04-15T06:23:32.343Z,101324.19
2023-04-15T06:26:00.102Z,101326.31
2023-04-15T06:28:27.808Z,101334.72
2023-04-15T06:30:56.416Z,101329.25
2023-04-15T06:33:25.780Z,101333.66
2023-04-15T06:35:53.601Z,101343.25
2023-04-15T06:38:21.447Z,101340.22
2023-04-15T06:40:49.411Z,101341.75
2023-04-15T06:43:17.136Z,101342.00
2023-04-15T06:45:44.986Z,101343.09
2023-04-15T06:48:13.120Z,101348.84
2023-04-15T06:50:42.357Z,101355.63
2023-04-15T06:53:10.144Z,101353.78
2023-04-15T06:55:37.902Z,101360.31
2023-04-15T06:58:05.834Z,101357.25
2023-04-15T07:00:33.988Z,101359.69
2023-04-15T07:03:03.707Z,101360.00
2023-04-15T07:05:32.609Z,101364.13
2023-04-15T07:08:01.934Z,101358.13
2023-04-15T07:10:29.974Z,101357.72
2023-04-15T07:12:58.290Z,101365.13
2023-04-15T07:15:26.270Z,101367.16
2023-04-15T07:17:54.469Z,101367.31
2023-04-15T07:20:22.868Z,101380.84
2023-04-15T07:22:50.652Z,101373.78
2023-04-15T07:25:20.003Z,101380.47
2023-04-15T07:27:47.861Z,101382.25
2023-04-15T07:30:16.158Z,101392.06
2023-04-15T07:32:44.240Z,101392.72
2023-04-15T07:35:12.323Z,101394.66
2023-04-15T07:37:40.506Z,101390.03
2023-04-15T07:40:09.510Z,101397.44
2023-04-15T07:42:41.165Z,101395.03
2023-04-15T07:45:10.011Z,101398.31
2023-04-15T07:47:37.740Z,101403.31
2023-04-15T07:50:07.031Z,101398.00
2023-04-15T07:52:39.245Z,101413.97
2023-04-15T07:55:08.382Z,101403.06
2023-04-15T07:57:36.239Z,101411.16
2023-04-15T08:00:07.669Z,101403.53
2023-04-15T08:02:42.756Z,101406.78
2023-04-15T08:05:11.226Z,101413.97
2023-04-15T08:07:39.368Z,101410.16
2023-04-15T08:10:08.325Z,101417.09
2023-04-15T08:12:36.263Z,101421.81
2023-04-15T08:15:06.709Z,101416.69
2023-04-15T08:17:34.627Z,101420.88
2023-04-15T08:20:02.572Z,101419.34
2023-04-15T08:22:30.463Z,101419.97
2023-04-15T08:24:58.158Z,101427.81
2023-04-15T08:27:25.860Z,101428.81
2023-04-15T08:29:53.673Z,101425.59
2023-04-15T08:32:22.884Z,101422.56
2023-04-15T08:34:50.738Z,101429.44
2023-04-15T08:37:18.697Z,101430.69
2023-04-15T08:39:46.582Z,101434.34
2023-04-15T08:42:18.492Z,101434.13
2023-04-15T08:44:48.873Z,101432.38
2023-04-15T08:47:25.446Z,101433.06
2023-04-15T08:49:56.814Z,101426.19
2023-04-15T08:52:27.418Z,101429.34
2023-04-15T08:54:59.287Z,101420.72
2023-04-15T08:57:28.586Z,101424.69
2023-04-15T08:59:57.940Z,101432.56
2023-04-15T09:02:28.504Z,101428.09
2023-04-15T09:04:56.775Z,101439.47
2023-04-15T09:07:24.535Z,101436.66
2023-04-15T09:09:52.853Z,101451.59
2023-04-15T09:12:20.889Z,101448.63
2023-04-15T09:14:49.632Z,101456.75
2023-04-15T09:17:21.076Z,101456.88
2023-04-15T09:19:50.489Z,101458.06
2023-04-15T09:22:18.589Z,101460.25
2023-04-15T09:24:46.676Z,101460.72
2023-04-15T09:27:17.469Z,101469.66
2023-04-15T09:29:45.287Z,101465.94
2023-04-15T09:32:14.636Z,101475.78
2023-04-15T09:34:42.437Z,101482.53
2023-04-15T09:37:24.298Z,101476.75
2023-04-15T09:39:59.325Z,101469.16
2023-04-15T09:42:28.299Z,101470.41
2023-04-15T09:44:56.335Z,101480.22
2023-04-15T09:47:31.405Z,101470.44
2023-04-15T09:50:00.370Z,101489.88
2023-04-15T09:52:30.015Z,101488.28
2023-04-15T09:54:59.968Z,101494.91
2023-04-15T09:57:35.294Z,101493.38
2023-04-15T10:00:03.692Z,101488.84
2023-04-15T10:02:35.252Z,101484.75
2023-04-15T10:05:04.144Z,101497.75
2023-04-15T10:07:34.000Z,101489.41
2023-04-15T10:10:03.829Z,101495.34
2023-04-15T10:12:33.520Z,101501.03
2023-04-15T10:15:06.616Z,101502.53
2023-04-15T10:17:36.991Z,101495.53
2023-04-15T10:20:07.691Z,101507.13
2023-04-15T10:22:38.770Z,101503.69
2023-04-15T10:25:07.392Z,101506.88
2023-04-15T10:27:35.532Z,101508.91
2023-04-15T10:30:04.835Z,101511.78
2023-04-15T10:32:33.220Z,101511.00
2023-04-15T10:35:02.359Z,101513.31
2023-04-15T10:37:37.370Z,101510.25
2023-04-15T10:40:28.322Z,101514.50
2023-04-15T10:42:57.937Z,101512.25
2023-04-15T10:45:28.672Z,101523.91
2023-04-15T10:47:57.852Z,101524.19
2023-04-15T10:50:28.648Z,101522.69
2023-04-15T10:52:58.609Z,101522.13
2023-04-15T10:55:27.782Z,101521.88
2023-04-15T10:57:59.493Z,101534.38
2023-04-15T11:00:29.579Z,101531.78
2023-04-15T11:02:59.368Z,101536.78
2023-04-15T11:05:50.637Z,101526.81
2023-04-15T11:08:20.511Z,101542.13
2023-04-15T11:10:56.543Z,101533.25
2023-04-15T11:13:29.402Z,101544.88
2023-04-15T11:16:04.511Z,101547.44
2023-04-15T11:18:34.250Z,101545.69
2023-04-15T11:21:07.247Z,101550.34
2023-04-15T11:23:38.814Z,101545.19
2023-04-15T11:26:09.760Z,101547.31
2023-04-15T11:28:40.132Z,101556.47
2023-04-15T11:31:10.822Z,101560.63
2023-04-15T11:33:40.485Z,101561.00
2023-04-15T11:36:08.629Z,101563.22
2023-04-15T11:38:38.050Z,101564.72
2023-04-15T11:41:05.811Z,101567.84
2023-04-15T11:43:35.442Z,101566.09
2023-04-15T11:46:05.065Z,101567.75
2023-04-15T11:48:34.403Z,101571.22
2023-04-15T11:51:03.632Z,101571.47
2023-04-15T11:53:41.290Z,101579.56
2023-04-15T11:56:10.584Z,101573.38
2023-04-15T11:58:39.671Z,101572.09
2023-04-15T12:01:08.430Z,101573.38
2023-04-15T12:03:41.198Z,101585.28
2023-04-15T12:06:19.429Z,101583.91
2023-04-15T12:09:09.306Z,101581.88
2023-04-15T12:11:42.536Z,101587.66
2023-04-15T12:14:13.649Z,101583.34
2023-04-15T12:16:48.177Z,101584.38
2023-04-15T12:19:18.727Z,101588.06
2023-04-15T12:21:49.245Z,101594.09
2023-04-15T12:24:22.760Z,101596.13
2023-04-15T12:26:51.264Z,101593.25
2023-04-15T12:29:19.285Z,101606.59
2023-04-15T12:31:52.094Z,101606.56
2023-04-15T12:34:26.800Z,101605.72
2023-04-15T12:36:54.972Z,101615.59
2023-04-15T12:39:25.562Z,101619.72
2023-04-15T12:41:53.611Z,101613.84
2023-04-15T12:44:23.982Z,101631.44
2023-04-15T12:46:52.906Z,101625.06
2023-04-15T12:49:21.774Z,101638.69
2023-04-15T12:51:50.644Z,101638.41
2023-04-15T12:54:18.938Z,101635.28
2023-04-15T12:56:49.796Z,101630.84
2023-04-15T12:59:18.820Z,101634.72
2023-04-15T13:01:47.313Z,101632.88
2023-04-15T13:04:15.661Z,101645.44
2023-04-15T13:06:44.044Z,101633.84
2023-04-15T13:09:12.020Z,101634.41
2023-04-15T13:11:39.896Z,101637.00
2023-04-15T13:14:11.478Z,101643.00
2023-04-15T13:16:39.821Z,101645.44
2023-04-15T13:19:07.969Z,101655.94
2023-04-15T13:21:36.784Z,101645.88
2023-04-15T13:24:07.247Z,101648.34
2023-04-15T13:26:35.328Z,101655.47
2023-04-15T13:29:03.138Z,101659.63
2023-04-15T13:31:32.511Z,101661.50
2023-04-15T13:34:00.614Z,101655.19
2023-04-15T13:36:28.477Z,101667.38
2023-04-15T13:38:57.129Z,101672.56
2023-04-15T13:41:25.159Z,101674.97
2023-04-15T13:43:53.052Z,101668.97
2023-04-15T13:46:20.958Z,101670.97
2023-04-15T13:48:50.299Z,101678.41
2023-04-15T13:51:18.136Z,101671.41
2023-04-15T13:53:46.011Z,101677.28
2023-04-15T13:56:13.806Z,101671.13
2023-04-15T13:58:42.075Z,101682.28
2023-04-15T14:01:10.161Z,101679.00
2023-04-15T14:03:38.454Z,101670.81
2023-04-15T14:06:08.005Z,101675.69
2023-04-15T14:08:35.805Z,101685.72
2023-04-15T14:11:03.915Z,101687.31
2023-04-15T14:13:31.889Z,101686.88
2023-04-15T14:15:59.657Z,101696.16
2023-04-15T14:18:27.596Z,101695.91
2023-04-15T14:20:55.872Z,101692.59
2023-04-15T14:23:24.997Z,101695.91
2023-04-15T14:25:52.996Z,101700.31
2023-04-15T14:28:20.793Z,101701.06
2023-04-15T14:30:48.660Z,101702.63
2023-04-15T14:33:16.597Z,101704.78
2023-04-15T14:35:44.433Z,101709.94
2023-04-15T14:38:12.308Z,101703.06
2023-04-15T14:40:42.289Z,101724.13
2023-04-15T14:43:10.217Z,101715.53
2023-04-15T14:45:40.595Z,101720.25
2023-04-15T14:48:12.565Z,101731.44
2023-04-15T14:50:40.898Z,101728.00
2023-04-15T14:53:08.635Z,101734.16
2023-04-15T14:55:36.554Z,101735.31
2023-04-15T14:58:06.072Z,101739.88
2023-04-15T15:00:33.876Z,101738.03
2023-04-15T15:03:01.832Z,101749.38
2023-04-15T15:05:30.005Z,101751.50
2023-04-15T15:07:57.960Z,101756.66
2023-04-15T15:10:48.345Z,101747.16
2023-04-15T15:13:15.736Z,101756.91
2023-04-15T15:15:43.809Z,101751.63
2023-04-15T15:18:11.763Z,101757.66
2023-04-15T15:20:39.625Z,101760.81
2023-04-15T15:23:07.397Z,101764.66
2023-04-15T15:25:35.357Z,101774.13
2023-04-15T15:28:03.317Z,101770.00
2023-04-15T15:30:32.599Z,101767.88
2023-04-15T15:33:00.752Z,101778.88
2023-04-15T15:35:28.889Z,101774.31
2023-04-15T15:37:57.107Z,101770.28
2023-04-15T15:40:25.782Z,101761.81
2023-04-15T15:42:53.525Z,101766.41
2023-04-15T15:45:21.316Z,101780.16
2023-04-15T15:47:51.538Z,101774.88
2023-04-15T15:50:19.514Z,101785.19
2023-04-15T15:52:47.392Z,101785.56
2023-04-15T15:55:15.204Z,101785.88
2023-04-15T15:57:42.969Z,101797.81
2023-04-15T16:00:12.959Z,101800.47
2023-04-15T16:05:13.222Z,101802.78
2023-04-15T16:07:41.035Z,101797.50
2023-04-15T16:10:10.209Z,101804.81
2023-04-15T16:12:37.973Z,101805.81
2023-04-15T16:15:06.996Z,101810.38
2023-04-15T16:17:34.959Z,101815.38
2023-04-15T16:20:05.584Z,101817.19
2023-04-15T16:22:35.085Z,101823.75
2023-04-15T16:25:03.831Z,101816.34
2023-04-15T16:27:31.719Z,101812.94
2023-04-15T16:29:59.658Z,101826.09
2023-04-15T16:32:27.544Z,101822.22
2023-04-15T16:34:55.792Z,101816.06
2023-04-15T16:37:23.624Z,101827.06
2023-04-15T16:39:52.717Z,101824.22
2023-04-15T16:42:20.440Z,101825.53
2023-04-15T16:44:48.207Z,101838.03
2023-04-15T16:47:16.018Z,101838.28
2023-04-15T16:49:43.835Z,101832.53
2023-04-15T16:52:11.789Z,101837.34
2023-04-15T16:54:41.411Z,101836.41
2023-04-15T16:57:10.838Z,101839.53
2023-04-15T16:59:39.052Z,101834.84
2023-04-15T17:02:06.912Z,101837.13
2023-04-15T17:04:34.956Z,101850.88
2023-04-15T17:07:03.104Z,101849.09
2023-04-15T17:09:30.881Z,101844.81
2023-04-15T17:11:58.656Z,101851.28
2023-04-15T17:14:28.647Z,101849.09
2023-04-15T17:16:56.887Z,101857.41
2023-04-15T17:19:24.757Z,101857.16
2023-04-15T17:21:54.841Z,101866.81
2023-04-15T17:24:22.930Z,101876.88
2023-04-15T17:26:50.727Z,101876.97
2023-04-15T17:29:18.642Z,101871.69
2023-04-15T17:31:47.827Z,101877.41
2023-04-15T17:34:16.235Z,101879.03
2023-04-15T17:36:44.121Z,101878.09
2023-04-15T17:39:13.994Z,101874.38
2023-04-15T17:41:41.867Z,101875.56
2023-04-15T17:44:09.622Z,101884.31
2023-04-15T17:46:37.454Z,101883.94
2023-04-15T17:49:07.001Z,101885.38
2023-04-15T17:51:34.888Z,101885.97
2023-04-15T17:54:08.904Z,101898.31
2023-04-15T17:56:36.715Z,101886.75
2023-04-15T17:59:04.634Z,101895.31
2023-04-15T18:01:32.526Z,101887.34
2023-04-15T18:04:00.644Z,101893.63
2023-04-15T18:06:30.040Z,101894.47
2023-04-15T18:08:58.036Z,101900.22
2023-04-15T18:11:26.049Z,101900.94
2023-04-15T18:13:53.809Z,101907.22
2023-04-15T18:16:21.738Z,101914.59
2023-04-15T18:18:49.470Z,101920.72
2023-04-15T18:21:17.303Z,101916.88
2023-04-15T18:23:46.521Z,101923.78
2023-04-15T18:26:14.860Z,101934.13
2023-04-15T18:28:42.797Z,101924.53
2023-04-15T18:31:10.863Z,101930.63
2023-04-15T18:33:38.861Z,101934.47
2023-04-15T18:36:07.215Z,101939.91
2023-04-15T18:38:35.556Z,101941.47
2023-04-15T18:41:05.406Z,101937.00
2023-04-15T18:43:33.316Z,101945.03
2023-04-15T18:46:01.886Z,101957.72
2023-04-15T18:48:30.283Z,101957.06
2023-04-15T18:50:58.482Z,101962.44
2023-04-15T18:53:27.031Z,101967.41
2023-04-15T18:55:56.470Z,101964.19
2023-04-15T18:58:25.675Z,101973.00
2023-04-15T19:00:53.504Z,101990.25
2023-04-15T19:03:21.517Z,101980.38
2023-04-15T19:05:49.453Z,101985.66
2023-04-15T19:08:17.316Z,101989.56
2023-04-15T19:10:45.196Z,101986.31
2023-04-15T19:13:12.983Z,101985.75
2023-04-15T19:15:42.081Z,101996.16
2023-04-15T19:18:10.618Z,101990.84
2023-04-15T19:20:40.045Z,101994.66
2023-04-15T19:23:08.371Z,101996.72
2023-04-15T19:25:36.207Z,102001.78
2023-04-15T19:28:03.913Z,101996.75
2023-04-15T19:30:33.284Z,102007.34
2023-04-15T19:33:02.598Z,102004.50
2023-04-15T19:35:30.485Z,102002.97
2023-04-15T19:37:58.301Z,102000.94
2023-04-15T19:40:26.038Z,102012.41
2023-04-15T19:42:53.886Z,102005.69
2023-04-15T19:45:21.880Z,102017.84
2023-04-15T19:47:49.756Z,102014.13
2023-04-15T19:50:24.752Z,102012.28
2023-04-15T19:52:52.573Z,102004.66
2023-04-15T19:55:20.414Z,102010.94
2023-04-15T19:57:48.142Z,102013.31
2023-04-15T20:00:16.097Z,102011.56
2023-04-15T20:02:44.013Z,102004.03
2023-04-15T20:05:11.985Z,102010.94
2023-04-15T20:07:42.498Z,102005.75
2023-04-15T20:10:13.074Z,102012.78
2023-04-15T20:12:51.626Z,102011.91
2023-04-15T20:15:21.557Z,102004.66
2023-04-15T20:17:49.370Z,102000.66
2023-04-15T20:20:17.318Z,102000.59
2023-04-15T20:22:46.905Z,102006.75
2023-04-15T20:25:14.845Z,102005.03
2023-04-15T20:27:42.669Z,102003.09
2023-04-15T20:30:11.357Z,102009.09
2023-04-15T20:32:39.209Z,102019.44
2023-04-15T20:35:07.882Z,102011.25
2023-04-15T20:37:36.294Z,102000.25
2023-04-15T20:40:06.550Z,102017.06
2023-04-15T20:42:34.903Z,102002.94
2023-04-15T20:45:02.854Z,102013.72
2023-04-15T20:47:31.019Z,102000.53
2023-04-15T20:49:58.872Z,102007.16
2023-04-15T20:52:26.718Z,102007.53
2023-04-15T20:54:54.408Z,102011.25
2023-04-15T20:57:24.566Z,102015.31
2023-04-15T20:59:52.344Z,102014.88
2023-04-15T21:02:20.254Z,102011.72
2023-04-15T21:04:48.163Z,102019.03
2023-04-15T21:07:15.888Z,102021.19
2023-04-15T21:09:43.804Z,102016.91
2023-04-15T21:12:12.290Z,102028.13
2023-04-15T21:14:41.595Z,102021.81
2023-04-15T21:17:11.113Z,102029.97
2023-04-15T21:19:40.413Z,102029.28
2023-04-15T21:22:08.172Z,102025.81
2023-04-15T21:24:35.931Z,102029.56
2023-04-15T21:27:03.841Z,102027.72
2023-04-15T21:29:31.607Z,102031.16
2023-04-15T21:32:01.017Z,102028.31
2023-04-15T21:34:28.978Z,102030.44
2023-04-15T21:36:56.808Z,102040.50
2023-04-15T21:39:24.866Z,102039.44
2023-04-15T21:41:52.779Z,102047.22
2023-04-15T21:44:20.679Z,102047.78
2023-04-15T21:46:48.477Z,102058.00
2023-04-15T21:49:17.656Z,102061.72
2023-04-15T21:51:46.507Z,102077.19
2023-04-15T21:54:14.313Z,102073.16
2023-04-15T21:56:42.361Z,102065.97
2023-04-15T21:59:10.139Z,102081.47
2023-04-15T22:01:37.975Z,102079.31
2023-04-15T22:04:07.505Z,102082.34
2023-04-15T22:06:36.960Z,102085.25
2023-04-15T22:09:04.953Z,102083.94
2023-04-15T22:11:32.886Z,102082.56
2023-04-15T22:14:00.778Z,102086.56
2023-04-15T22:16:29.159Z,102092.50
2023-04-15T22:18:57.022Z,102091.72
2023-04-15T22:21:25.262Z,102087.53
2023-04-15T22:24:33.177Z,102087.56
2023-04-15T22:26:42.937Z,102094.13
2023-04-15T22:29:11.103Z,102101.03
2023-04-15T22:31:39.084Z,102094.97
2023-04-15T22:34:06.891Z,102094.22
2023-04-15T22:36:34.652Z,102095.25
2023-04-15T22:39:04.101Z,102098.81
2023-04-15T22:41:32.161Z,102098.97
2023-04-15T22:44:00.165Z,102100.50
2023-04-15T22:46:27.926Z,102099.53
2023-04-15T22:48:55.796Z,102094.38
2023-04-15T22:51:24.167Z,102096.28
2023-04-15T22:53:51.976Z,102097.72
2023-04-15T22:56:21.713Z,102094.41
2023-04-15T22:58:49.856Z,102101.03
2023-04-15T23:01:18.390Z,102112.59
2023-04-15T23:03:57.042Z,102119.81
2023-04-15T23:06:33.370Z,102116.66
2023-04-15T23:09:01.368Z,102130.13
2023-04-15T23:11:30.912Z,102126.66
2023-04-15T23:13:59.016Z,102128.09
2023-04-15T23:16:28.153Z,102125.56
2023-04-15T23:18:55.926Z,102132.44
2023-04-15T23:21:25.935Z,102134.75
2023-04-15T23:23:53.904Z,102141.78
2023-04-15T23:26:21.634Z,102136.03
2023-04-15T23:28:50.714Z,102135.91
2023-04-15T23:31:18.548Z,102142.66
2023-04-15T23:33:46.452Z,102145.09
2023-04-15T23:36:14.155Z,102132.59
2023-04-15T23:38:42.675Z,102136.56
2023-04-15T23:41:11.946Z,102134.41
2023-04-15T23:43:39.711Z,102136.44
2023-04-15T23:46:08.838Z,102134.25
2023-04-15T23:48:36.642Z,102133.94
2023-04-15T23:51:04.935Z,102139.84
2023-04-15T23:53:32.680Z,102140.16
2023-04-15T23:56:00.451Z,102145.47
2023-04-15T23:58:28.193Z,102137.75
